Latest Weather Observations for Albany Airport

IDW60801

Issued at 4:33 am WST Thursday 19 September 2019 (issued every 10 minutes, with the page automatically refreshed every 10 minutes)

About weather observations | Map of weather stations | Latest weather observations for WA | Other Formats
Station Details ID: 009999 Name: ALBANY AIRPORT Lat: -34.94 Lon: 117.82 Height: 68.4 m
Data from the previous 72 hours. | See also: Recent months at Albany Airport
Date/Time
WST
Temp
°C
App
Temp
°C
Dew
Point
°C
Rel
Hum
%
Delta-T
°C
Wind Press
QNH
hPa
Press
MSL
hPa
Rain since
9am
mm
Dir  Spd
km/h
Gust
km/h
Spd
kts
Gust
kts
19/04:30am 7.1 -0.1 4.8 85 1.0 WSW 32 48 17 26 1010.5 1010.5 13.4
19/04:07am 7.5 0.7 5.0 84 1.1 WSW 30 57 16 31 1010.4 1010.4 12.6
19/04:06am 7.5 1.0 4.8 83 1.2 W 28 57 15 31 1010.3 1010.3 12.6
19/04:05am 7.5 1.4 4.8 83 1.2 W 26 57 14 31 1010.3 1010.3 12.6
19/04:00am 7.8 2.8 4.7 81 1.4 W 20 30 11 16 1010.0 1010.0 12.0
19/03:38am 7.4 0.9 4.7 83 1.2 WSW 28 43 15 23 1009.7 1009.7 11.8
19/03:30am 7.3 -0.9 5.0 85 1.0 WSW 37 48 20 26 1009.7 1009.7 11.8
19/03:22am 7.5 -0.4 4.6 82 1.3 W 35 65 19 35 1009.8 1009.8 11.8
19/03:18am 8.0 1.5 4.6 79 1.5 WNW 28 65 15 35 1009.6 1009.6 11.6
19/03:00am 8.7 2.8 3.9 72 2.1 W 24 35 13 19 1009.0 1009.0 11.0
19/02:30am 9.9 3.2 3.6 65 2.8 W 28 39 15 21 1009.1 1009.1 11.0
19/02:00am 9.5 2.6 4.5 71 2.2 W 30 46 16 25 1008.7 1008.7 11.0
19/01:30am 8.5 3.0 5.8 83 1.2 W 24 37 13 20 1008.7 1008.7 11.0
19/01:00am 8.4 3.1 5.0 79 1.5 W 22 28 12 15 1008.7 1008.7 10.6
19/12:52am 8.2 2.8 4.6 78 1.6 W 22 30 12 16 1008.7 1008.7 10.6
19/12:30am 8.3 0.7 5.8 84 1.1 WSW 35 56 19 30 1008.9 1008.9 10.6
19/12:28am 8.4 0.8 5.9 84 1.1 WSW 35 56 19 30 1009.1 1009.1 10.6
19/12:18am 8.6 2.6 6.9 89 0.8 W 28 57 15 31 1008.9 1008.9 10.4
19/12:09am 8.4 3.5 6.9 90 0.7 W 22 28 12 15 1008.4 1008.4 10.4
19/12:00am 8.3 2.2 6.8 90 0.7 W 28 44 15 24 1008.2 1008.1 10.4
 
Date/Time
WST
Temp
°C
App
Temp
°C
Dew
Point
°C
Rel
Hum
%
Delta-T
°C
Wind Press
QNH
hPa
Press
MSL
hPa
Rain since
9am
mm
Dir  Spd
km/h
Gust
km/h
Spd
kts
Gust
kts
18/11:57pm 8.3 1.4 6.6 89 0.8 W 32 44 17 24 1008.3 1008.3 10.4
18/11:44pm 8.9 1.0 6.3 84 1.2 WSW 37 57 20 31 1008.6 1008.6 9.8
18/11:35pm 9.6 3.4 6.3 80 1.5 W 28 54 15 29 1008.1 1008.0 9.4
18/11:30pm 10.1 4.8 7.0 81 1.5 W 24 33 13 18 1008.1 1008.0 9.4
18/11:00pm 9.6 4.8 7.5 87 1.0 W 22 30 12 16 1008.0 1007.9 9.4
18/10:32pm 9.9 4.2 8.3 90 0.8 W 28 57 15 31 1007.8 1007.8 9.4
18/10:30pm 9.9 5.1 8.7 92 0.6 W 24 43 13 23 1007.8 1007.8 9.2
18/10:00pm 10.2 5.2 9.4 95 0.4 W 26 33 14 18 1007.5 1007.5 9.0
18/09:41pm 9.9 5.6 9.3 96 0.3 WNW 22 32 12 17 1007.3 1007.3 8.8
18/09:30pm 9.9 4.4 9.1 95 0.4 WNW 28 33 15 18 1007.3 1007.3 8.8
18/09:18pm 10.0 5.6 9.1 94 0.4 W 22 32 12 17 1007.3 1007.3 8.2
18/09:00pm 10.1 5.3 8.9 92 0.6 W 24 35 13 19 1007.0 1007.0 7.8
18/08:32pm 10.6 4.2 9.4 92 0.6 W 33 52 18 28 1007.2 1007.2 7.6
18/08:30pm 10.6 3.8 9.4 92 0.6 W 35 52 19 28 1007.2 1007.2 7.2
18/08:26pm 10.6 3.0 9.2 91 0.7 W 39 57 21 31 1007.2 1007.2 7.2
18/08:24pm 10.7 2.8 9.3 91 0.7 W 41 61 22 33 1007.2 1007.2 7.0
18/08:11pm 11.2 6.1 10.6 96 0.3 WSW 28 48 15 26 1007.2 1007.2 6.8
18/08:00pm 11.7 6.0 11.1 96 0.3 WSW 32 44 17 24 1006.8 1006.8 6.6
18/07:57pm 11.7 6.0 11.1 96 0.3 WSW 32 44 17 24 1006.7 1006.7 6.6
18/07:55pm 11.8 6.1 11.2 96 0.3 WSW 32 44 17 24 1006.8 1006.8 6.6
18/07:39pm 11.9 5.2 11.1 95 0.4 WSW 37 54 20 29 1006.5 1006.5 5.8
18/07:37pm 11.9 4.9 11.1 95 0.4 WSW 39 61 21 33 1006.4 1006.4 5.6
18/07:30pm 12.0 5.4 11.2 95 0.4 WSW 37 61 20 33 1006.3 1006.3 5.2
18/07:27pm 12.1 6.3 11.5 96 0.3 WSW 33 57 18 31 1006.0 1006.0 5.0
18/07:26pm 12.1 6.3 11.5 96 0.3 WSW 33 50 18 27 1005.9 1005.9 5.0
18/07:00pm 12.9 6.2 11.0 88 1.0 W 37 65 20 35 1005.0 1005.0 4.0
18/06:59pm 13.1 6.7 10.8 86 1.2 W 35 65 19 35 1005.0 1005.0 4.0
18/06:58pm 13.6 7.7 11.0 84 1.4 W 33 63 18 34 1005.0 1005.0 4.0
18/06:56pm 14.8 9.4 12.1 84 1.5 W 32 52 17 28 1004.9 1004.9 3.6
18/06:43pm 15.0 8.9 12.9 87 1.2 WNW 37 50 20 27 1004.5 1004.5 3.6
18/06:30pm 15.4 10.0 12.9 85 1.4 WNW 33 46 18 25 1004.3 1004.3 3.6
18/06:00pm 15.3 9.6 13.0 86 1.3 WNW 35 48 19 26 1004.1 1004.1 3.6
18/05:47pm 15.4 10.2 13.4 88 1.1 WNW 33 46 18 25 1004.1 1004.1 3.6
18/05:30pm 15.3 9.9 14.0 92 0.7 NW 35 50 19 27 1004.4 1004.4 3.4
18/05:24pm 15.9 11.4 13.9 88 1.1 NW 30 48 16 26 1004.5 1004.5 0.8
18/05:00pm 17.9 14.5 13.6 76 2.5 NW 24 35 13 19 1004.1 1004.1 0.0
18/04:30pm 18.9 13.9 13.5 71 3.1 NW 32 44 17 24 1004.3 1004.3 0.0
18/04:00pm 18.9 14.3 13.5 71 3.1 NW 30 43 16 23 1004.2 1004.2 0.0
18/03:30pm 18.9 14.0 14.2 74 2.7 NW 33 44 18 24 1004.4 1004.4 0.0
18/03:20pm 18.8 13.1 14.1 74 2.7 NW 37 56 20 30 1004.6 1004.6 0.0
18/03:00pm 18.8 13.0 13.9 73 2.8 NW 37 52 20 28 1004.9 1004.9 0.0
18/02:38pm 20.9 15.5 12.8 60 4.6 NW 33 52 18 28 1004.7 1004.7 0.0
18/02:30pm 21.2 15.7 12.6 58 4.9 NW 33 46 18 25 1004.8 1004.8 0.0
18/02:00pm 21.9 17.0 13.8 60 4.7 NW 32 44 17 24 1005.1 1005.1 0.0
18/01:35pm 21.9 15.5 13.3 58 5.0 NW 39 57 21 31 1005.6 1005.6 0.0
18/01:30pm 21.3 14.4 12.7 58 4.9 WNW 41 57 22 31 1005.8 1005.8 0.0
18/01:06pm 21.7 15.7 13.3 59 4.8 NW 37 56 20 30 1006.1 1006.1 0.0
18/01:00pm 21.4 16.1 13.1 59 4.8 NW 33 44 18 24 1006.2 1006.2 0.0
18/12:38pm 21.4 17.2 13.6 61 4.5 NW 28 50 15 27 1006.8 1006.8 0.0
18/12:30pm 20.4 15.4 13.4 64 4.0 NW 32 39 17 21 1007.0 1007.0 0.0
18/12:00pm 19.6 13.9 13.1 66 3.7 NW 35 46 19 25 1008.0 1007.9 0.0
18/11:30am 20.3 15.4 13.7 66 3.8 WNW 32 43 17 23 1008.4 1008.4 0.0
18/11:00am 19.1 13.9 13.3 69 3.3 NW 33 48 18 26 1009.0 1009.0 0.0
18/10:30am 18.1 13.0 13.2 73 2.8 NW 32 44 17 24 1009.6 1009.6 0.0
18/10:20am 18.1 13.8 13.2 73 2.8 NW 28 46 15 25 1009.6 1009.6 0.0
18/10:00am 17.3 12.9 12.8 75 2.5 NW 28 39 15 21 1010.0 1010.0 0.0
18/09:30am 16.6 12.2 12.9 79 2.1 NW 28 37 15 20 1010.6 1010.6 0.0
18/09:00am 16.0 12.2 12.4 79 2.0 NW 24 30 13 16 1011.2 1011.2 0.0
18/08:30am 15.3 10.6 11.9 80 1.8 NW 28 37 15 20 1011.6 1011.6 0.0
18/08:00am 14.4 10.4 11.9 85 1.4 NW 24 33 13 18 1011.7 1011.7 0.0
18/07:30am 13.5 9.9 11.7 89 1.0 NNW 22 30 12 16 1011.8 1011.8 0.0
18/07:00am 12.6 9.2 11.2 91 0.7 NNW 20 30 11 16 1012.1 1012.1 0.0
18/06:30am 11.9 8.9 10.8 93 0.6 NNW 17 24 9 13 1012.3 1012.3 0.0
18/06:00am 11.9 8.5 10.6 92 0.7 NNW 19 26 10 14 1012.4 1012.4 0.0
18/05:30am 12.3 8.5 11.0 92 0.7 NNW 22 30 12 16 1012.6 1012.6 0.0
18/05:00am 12.2 8.7 10.9 92 0.7 NNW 20 30 11 16 1012.7 1012.7 0.0
18/04:30am 12.0 8.7 10.9 93 0.6 NNW 19 28 10 15 1012.8 1012.8 0.0
18/04:00am 11.8 8.8 10.7 93 0.6 NW 17 20 9 11 1013.0 1013.0 0.0
18/03:30am 11.9 8.9 10.6 92 0.7 NW 17 24 9 13 1013.1 1013.1 0.0
18/03:00am 12.1 9.5 10.8 92 0.7 NW 15 20 8 11 1013.3 1013.3 0.0
18/02:30am 12.2 9.3 10.9 92 0.7 NW 17 20 9 11 1013.7 1013.7 0.0
18/02:00am 12.0 9.8 10.7 92 0.7 NW 13 17 7 9 1013.9 1013.9 0.0
18/01:30am 12.4 9.4 10.8 90 0.8 NW 17 22 9 12 1014.3 1014.3 0.0
18/01:00am 12.8 10.0 11.2 90 0.8 NW 17 24 9 13 1014.3 1014.3 0.0
18/12:30am 12.7 9.8 11.1 90 0.8 WNW 17 20 9 11 1014.7 1014.7 0.0
18/12:00am 12.4 10.3 11.1 92 0.7 WNW 13 17 7 9 1015.0 1015.0 0.0
 
Date/Time
WST
Temp
°C
App
Temp
°C
Dew
Point
°C
Rel
Hum
%
Delta-T
°C
Wind Press
QNH
hPa
Press
MSL
hPa
Rain since
9am
mm
Dir  Spd
km/h
Gust
km/h
Spd
kts
Gust
kts
17/11:30pm 12.2 10.4 10.9 92 0.7 WNW 11 15 6 8 1015.1 1015.1 0.0
17/11:00pm 12.8 11.1 11.2 90 0.8 NW 11 15 6 8 1015.3 1015.3 0.0
17/10:30pm 12.8 10.7 11.2 90 0.8 WNW 13 15 7 8 1015.7 1015.7 0.0
17/10:00pm 13.2 10.8 11.4 89 1.0 WNW 15 17 8 9 1016.0 1016.0 0.0
17/09:30pm 13.6 11.8 12.0 90 0.9 WNW 13 17 7 9 1016.1 1016.1 0.0
17/09:00pm 13.4 11.9 11.8 90 0.9 WNW 11 15 6 8 1016.0 1016.0 0.0
17/08:30pm 13.6 12.6 12.2 91 0.8 WNW 9 11 5 6 1016.1 1016.1 0.0
17/08:00pm 13.9 13.0 12.5 91 0.8 WNW 9 13 5 7 1016.0 1016.0 0.0
17/07:30pm 14.1 13.6 12.5 90 0.9 WNW 7 9 4 5 1015.9 1015.9 0.0
17/07:00pm 15.1 14.3 12.8 86 1.3 WSW 9 13 5 7 1015.4 1015.4 0.0
17/06:30pm 15.4 14.2 12.7 84 1.5 W 11 15 6 8 1014.9 1014.9 0.0
17/06:00pm 15.9 13.5 12.8 82 1.7 WSW 17 26 9 14 1015.0 1015.0 0.0
17/05:30pm 16.5 13.2 12.8 79 2.1 WSW 22 30 12 16 1015.0 1015.0 0.0
17/05:00pm 17.1 14.3 13.2 78 2.2 SW 20 30 11 16 1015.1 1015.1 0.0
17/04:30pm 17.4 13.7 12.7 74 2.6 SW 24 32 13 17 1014.5 1014.5 0.0
17/04:00pm 18.7 14.5 12.5 67 3.5 SW 26 35 14 19 1014.5 1014.5 0.0
17/03:30pm 18.8 13.8 12.1 65 3.7 SW 30 41 16 22 1014.1 1014.1 0.0
17/03:00pm 19.9 16.2 12.7 63 4.1 SW 24 35 13 19 1013.8 1013.8 0.0
17/02:30pm 20.5 16.4 13.7 65 3.9 SW 28 35 15 19 1013.6 1013.6 0.0
17/02:00pm 20.3 15.9 14.2 68 3.5 SW 30 43 16 23 1014.0 1014.0 0.0
17/01:30pm 20.4 16.1 13.1 63 4.2 SW 28 39 15 21 1013.9 1013.9 0.0
17/01:00pm 20.9 17.4 12.3 58 4.8 SW 22 32 12 17 1013.9 1013.9 0.0
17/12:30pm 21.5 18.4 13.4 60 4.7 WSW 22 33 12 18 1014.2 1014.2 0.0
17/12:00pm 22.0 20.0 13.9 60 4.7 WSW 17 26 9 14 1014.4 1014.4 0.0
17/11:30am 20.6 19.5 13.1 62 4.3 W 11 17 6 9 1014.3 1014.3 0.0
17/11:00am 20.3 18.8 13.0 63 4.2 W 13 19 7 10 1014.8 1014.8 0.0
17/10:30am 19.2 17.7 12.0 63 4.0 W 11 15 6 8 1015.0 1015.0 0.0
17/10:00am 18.5 16.7 12.0 66 3.6 WSW 13 19 7 10 1015.4 1015.4 0.0
17/09:30am 17.4 15.2 12.1 71 2.9 W 15 22 8 12 1016.1 1016.1 0.0
17/09:00am 15.6 14.9 12.0 79 2.0 WSW 7 11 4 6 1015.8 1015.8 0.0
17/08:30am 13.5 13.7 11.9 90 0.9 W 2 7 1 4 1015.5 1015.5 0.0
17/08:00am 12.1 11.4 11.9 99 0.1 W 7 9 4 5 1015.8 1015.8 0.0
17/07:30am 10.9 9.8 10.7 99 0.1 W 7 9 4 5 1016.1 1016.1 0.0
17/07:06am 9.5 9.0 9.4 99 0.0 WNW 2 9 1 5 1016.3 1016.3 0.0
17/07:05am 9.5 9.0 9.4 99 0.0 WNW 2 9 1 5 1016.3 1016.3 0.0
17/07:00am 9.3 9.1 9.2 99 0.0 CALM 0 0 0 0 1016.1 1016.1 0.0
17/06:37am 7.5 6.9 7.4 99 0.0 CALM 0 6 0 3 1016.0 1016.0 0.0
17/06:30am 7.2 5.8 7.1 99 0.0 WNW 4 6 2 3 1016.0 1016.0 0.0
17/06:00am 7.9 6.3 7.8 99 0.0 NNW 6 7 3 4 1016.1 1016.1 0.0
17/05:43am 7.9 7.4 7.8 99 0.0 CALM 0 7 0 4 1016.1 1016.1 0.0
17/05:34am 7.9 7.4 7.8 99 0.0 CALM 0 0 0 0 1016.1 1016.1 0.0
17/05:30am 7.9 7.4 7.8 99 0.0 CALM 0 0 0 0 1016.1 1016.1 0.0
17/05:00am 8.4 8.0 8.1 98 0.1 CALM 0 0 0 0 1016.1 1016.1 0.0
17/04:30am 9.3 9.1 9.0 98 0.1 CALM 0 0 0 0 1016.0 1016.0 0.0
17/04:11am 9.2 8.6 8.9 98 0.1 SSW 2 6 1 3 1016.2 1016.2 0.0
17/04:00am 9.1 7.7 8.8 98 0.1 SSW 6 9 3 5 1016.3 1016.3 0.0
17/03:30am 9.0 8.6 8.4 96 0.3 CALM 0 6 0 3 1016.5 1016.5 0.0
17/03:00am 10.1 8.7 9.5 96 0.3 ENE 7 7 4 4 1016.6 1016.6 0.0
17/02:30am 10.7 8.7 10.1 96 0.3 ENE 11 15 6 8 1016.8 1016.8 0.0
17/02:00am 10.8 8.8 10.0 95 0.4 ENE 11 15 6 8 1017.3 1017.3 0.0
17/01:30am 11.1 9.1 10.2 94 0.5 ENE 11 13 6 7 1018.0 1018.0 0.0
17/01:00am 11.4 9.1 10.3 93 0.6 ENE 13 19 7 10 1018.2 1018.2 0.0
17/12:30am 11.8 9.1 10.4 91 0.7 ENE 15 19 8 10 1018.5 1018.5 0.0
17/12:00am 12.2 9.9 10.6 90 0.8 ENE 13 15 7 8 1019.0 1019.0 0.0
 
Date/Time
WST
Temp
°C
App
Temp
°C
Dew
Point
°C
Rel
Hum
%
Delta-T
°C
Wind Press
QNH
hPa
Press
MSL
hPa
Rain since
9am
mm
Dir  Spd
km/h
Gust
km/h
Spd
kts
Gust
kts
16/11:30pm 12.1 9.4 10.3 89 0.9 NE 15 20 8 11 1019.2 1019.2 0.0
16/11:00pm 12.3 9.2 10.2 87 1.1 ENE 17 22 9 12 1019.5 1019.5 0.0
16/10:30pm 12.6 9.1 10.3 86 1.2 ENE 19 24 10 13 1019.9 1019.9 0.0
16/10:00pm 12.5 10.1 10.2 86 1.2 ENE 13 19 7 10 1020.5 1020.6 0.0
16/09:30pm 12.6 9.8 10.1 85 1.3 NE 15 19 8 10 1020.9 1021.0 0.0
16/09:00pm 12.2 9.8 10.1 87 1.1 ENE 13 15 7 8 1021.1 1021.2 0.0
16/08:30pm 12.5 10.1 10.0 85 1.3 ENE 13 17 7 9 1021.1 1021.2 0.0
16/08:00pm 12.8 10.1 10.2 84 1.3 ENE 15 17 8 9 1020.9 1021.0 0.0
16/07:30pm 12.6 10.1 9.8 83 1.4 ENE 13 17 7 9 1020.7 1020.8 0.0
16/07:00pm 13.1 10.3 9.9 81 1.6 ENE 15 19 8 10 1020.5 1020.6 0.0
16/06:30pm 13.5 10.2 9.7 78 2.0 ENE 17 20 9 11 1020.4 1020.5 0.0
16/06:00pm 14.6 11.0 9.8 73 2.5 ENE 19 24 10 13 1020.7 1020.8 0.0
16/05:30pm 15.1 11.8 9.7 70 2.8 ENE 17 22 9 12 1020.6 1020.7 0.0
16/05:00pm 16.4 13.2 10.0 66 3.4 ENE 17 24 9 13 1020.4 1020.5 0.0
16/04:30pm 17.5 13.4 10.1 62 3.9 E 22 30 12 16 1020.4 1020.5 0.0
16/04:00pm 18.2 14.7 10.8 62 4.0 E 20 28 11 15 1020.3 1020.4 0.0
16/03:30pm 18.9 15.3 10.7 59 4.4 E 20 30 11 16 1020.6 1020.7 0.0
16/03:00pm 19.6 16.4 11.1 58 4.6 E 19 22 10 12 1020.9 1021.0 0.0
16/02:30pm 19.9 17.7 9.5 51 5.5 E 11 19 6 10 1021.2 1021.3 0.0
16/02:00pm 19.3 15.5 9.2 52 5.3 ENE 19 24 10 13 1021.8 1021.9 0.0
16/01:30pm 19.4 16.7 10.4 56 4.9 NE 15 28 8 15 1022.2 1022.3 0.0
16/01:00pm 18.0 14.1 9.4 57 4.5 ENE 20 28 11 15 1022.6 1022.7 0.0
16/12:30pm 17.7 14.0 9.6 59 4.3 ENE 19 26 10 14 1023.3 1023.3 0.0
16/12:00pm 17.2 13.7 10.1 63 3.7 NE 19 28 10 15 1024.0 1024.0 0.0
16/11:30am 16.6 13.5 10.2 66 3.4 ENE 17 24 9 13 1024.5 1024.5 0.0
16/11:00am 16.0 11.5 10.1 68 3.1 NE 24 32 13 17 1024.9 1024.9 0.0
16/10:30am 16.2 12.6 10.7 70 2.9 NE 20 26 11 14 1025.2 1025.2 0.0
16/10:00am 15.0 10.6 10.4 74 2.4 ENE 24 30 13 16 1025.5 1025.5 0.0
16/09:30am 14.9 10.8 10.1 73 2.5 NE 22 32 12 17 1025.6 1025.6 0.0
16/09:00am 14.5 10.5 10.3 76 2.2 NE 22 30 12 16 1026.0 1026.0 0.8
16/08:30am 14.0 9.9 10.2 78 2.0 NNE 22 30 12 16 1026.2 1026.2 0.8
16/08:00am 12.4 10.4 10.0 85 1.2 NE 11 17 6 9 1026.3 1026.3 0.8
16/07:30am 11.2 9.2 10.0 92 0.6 ENE 11 13 6 7 1026.2 1026.2 0.8
16/07:00am 9.7 7.8 9.2 97 0.2 NE 9 11 5 6 1026.0 1026.0 0.8
16/06:30am 8.2 6.4 7.8 97 0.2 NE 7 9 4 5 1026.0 1026.0 0.8
16/06:00am 8.1 6.2 7.5 96 0.3 NE 7 9 4 5 1026.0 1026.0 0.8
16/05:30am 8.4 6.5 7.6 95 0.4 ENE 7 9 4 5 1026.1 1026.1 0.8
16/05:00am 8.9 7.1 8.0 94 0.4 E 7 9 4 5 1026.1 1026.1 0.8

Other formats

Comma delimited format used in spreadsheet applications
http://www.bom.gov.au/fwo/IDW60801/IDW60801.94802.axf

JavaScript Object Notation format (JSON) in row-major order
http://www.bom.gov.au/fwo/IDW60801/IDW60801.94802.json

Data quality

Most of these data are generated automatically and are frequently updated. Quality checks on data are not normally performed. It is possible for incorrect values to appear. Refer to information at About Latest Weather Observations and please check the disclaimer before using these data.